Hensley, Arkansas
Current Conditions -  °F | °C
As of 7:53 PM on Saturday 25 Oct 2014 (Local Time) from KLIT Reporting Station
Clear Clear  
Wind Chill: 75°   Ceiling: Unl
Heat Index: 75°   Visibility: 10mi
Dew Point: 64°   Wind: 8mph
Humidity: 69%   Direction: 220°SW
Pressure: 30.03"   Gusts: NA
Location:  34.51°N, 92.21°W
Report Text: KLIT 260053Z 22007KT 10SM CLR 24/18 A3003 RMK AO2 SLP170 T02390178
Loading
Personal Weather Stations






























Interactive Weather Map New forecast layout! Learn more

10-Day Weather Forecast

Advertisements
Track Severe Weather on mobile